sensor_id;sensor_type;location;lat;lon;timestamp;P1;P2;P0
33948;PMS7003;20229;49.856;19.030;2023-04-01T00:00:12;74;69;66
33948;PMS7003;20229;49.856;19.030;2023-04-01T00:05:31;70;65;61
33948;PMS7003;20229;49.856;19.030;2023-04-01T00:10:45;87;83;81
33948;PMS7003;20229;49.856;19.030;2023-04-01T00:15:58;96;91;90
33948;PMS7003;20229;49.856;19.030;2023-04-01T00:21:14;98;96;94
33948;PMS7003;20229;49.856;19.030;2023-04-01T00:26:29;122;121;117
33948;PMS7003;20229;49.856;19.030;2023-04-01T00:31:43;135;135;130
33948;PMS7003;20229;49.856;19.030;2023-04-01T00:36:56;134;132;127
33948;PMS7003;20229;49.856;19.030;2023-04-01T00:42:10;115;115;109
33948;PMS7003;20229;49.856;19.030;2023-04-01T00:47:25;91;90;86
33948;PMS7003;20229;49.856;19.030;2023-04-01T00:52:40;86;83;79
33948;PMS7003;20229;49.856;19.030;2023-04-01T00:57:56;81;77;74
33948;PMS7003;20229;49.856;19.030;2023-04-01T01:03:11;83;78;74
33948;PMS7003;20229;49.856;19.030;2023-04-01T01:36:03;79;78;72
33948;PMS7003;20229;49.856;19.030;2023-04-01T01:41:21;82;80;73
33948;PMS7003;20229;49.856;19.030;2023-04-01T01:46:36;84;81;74
33948;PMS7003;20229;49.856;19.030;2023-04-01T01:51:52;81;78;68
33948;PMS7003;20229;49.856;19.030;2023-04-01T01:57:07;81;77;65
33948;PMS7003;20229;49.856;19.030;2023-04-01T02:02:24;81;77;56
33948;PMS7003;20229;49.856;19.030;2023-04-01T02:07:46;79;75;61
33948;PMS7003;20229;49.856;19.030;2023-04-01T02:18:35;80;75;62
33948;PMS7003;20229;49.856;19.030;2023-04-01T02:23:51;76;71;57
33948;PMS7003;20229;49.856;19.030;2023-04-01T02:29:07;75;70;47
33948;PMS7003;20229;49.856;19.030;2023-04-01T02:34:22;64;61;41
33948;PMS7003;20229;49.856;19.030;2023-04-01T02:39:38;75;70;57
33948;PMS7003;20229;49.856;19.030;2023-04-01T02:44:52;69;65;52
33948;PMS7003;20229;49.856;19.030;2023-04-01T02:50:07;68;63;42
33948;PMS7003;20229;49.856;19.030;2023-04-01T02:55:21;70;67;52
33948;PMS7003;20229;49.856;19.030;2023-04-01T03:00:35;72;69;53
33948;PMS7003;20229;49.856;19.030;2023-04-01T03:05:50;70;67;41
33948;PMS7003;20229;49.856;19.030;2023-04-01T03:11:05;68;64;42
33948;PMS7003;20229;49.856;19.030;2023-04-01T03:16:20;62;58;40
33948;PMS7003;20229;49.856;19.030;2023-04-01T03:21:34;69;64;43
33948;PMS7003;20229;49.856;19.030;2023-04-01T03:26:47;69;64;50
33948;PMS7003;20229;49.856;19.030;2023-04-01T03:32:01;67;63;43
33948;PMS7003;20229;49.856;19.030;2023-04-01T03:37:15;58;54;38
33948;PMS7003;20229;49.856;19.030;2023-04-01T03:42:30;61;57;40
33948;PMS7003;20229;49.856;19.030;2023-04-01T03:47:45;65;61;43
33948;PMS7003;20229;49.856;19.030;2023-04-01T03:52:59;63;60;42
33948;PMS7003;20229;49.856;19.030;2023-04-01T03:58:13;64;60;41
33948;PMS7003;20229;49.856;19.030;2023-04-01T04:03:27;64;61;41
33948;PMS7003;20229;49.856;19.030;2023-04-01T04:08:44;65;63;39
33948;PMS7003;20229;49.856;19.030;2023-04-01T04:13:59;69;65;40
33948;PMS7003;20229;49.856;19.030;2023-04-01T04:19:14;67;63;40
33948;PMS7003;20229;49.856;19.030;2023-04-01T04:24:27;65;62;40
33948;PMS7003;20229;49.856;19.030;2023-04-01T04:29:42;63;59;42
33948;PMS7003;20229;49.856;19.030;2023-04-01T04:34:56;65;60;45
33948;PMS7003;20229;49.856;19.030;2023-04-01T04:40:10;58;54;41
33948;PMS7003;20229;49.856;19.030;2023-04-01T04:45:24;62;59;44
33948;PMS7003;20229;49.856;19.030;2023-04-01T04:50:39;59;57;40
33948;PMS7003;20229;49.856;19.030;2023-04-01T04:55:53;54;51;37
33948;PMS7003;20229;49.856;19.030;2023-04-01T05:01:11;57;54;40
33948;PMS7003;20229;49.856;19.030;2023-04-01T05:06:27;57;54;39
33948;PMS7003;20229;49.856;19.030;2023-04-01T05:11:45;65;62;46
33948;PMS7003;20229;49.856;19.030;2023-04-01T05:16:59;77;72;56
33948;PMS7003;20229;49.856;19.030;2023-04-01T05:22:12;78;74;54
33948;PMS7003;20229;49.856;19.030;2023-04-01T05:27:26;68;64;52
33948;PMS7003;20229;49.856;19.030;2023-04-01T05:32:40;65;61;51
33948;PMS7003;20229;49.856;19.030;2023-04-01T05:37:54;64;59;54
33948;PMS7003;20229;49.856;19.030;2023-04-01T05:43:09;61;57;53
33948;PMS7003;20229;49.856;19.030;2023-04-01T05:48:23;60;55;50
33948;PMS7003;20229;49.856;19.030;2023-04-01T05:53:36;63;56;48
33948;PMS7003;20229;49.856;19.030;2023-04-01T05:58:51;54;47;42
33948;PMS7003;20229;49.856;19.030;2023-04-01T06:04:06;52;45;38
33948;PMS7003;20229;49.856;19.030;2023-04-01T06:37:07;28;26;22
33948;PMS7003;20229;49.856;19.030;2023-04-01T06:59:13;29;26;22
33948;PMS7003;20229;49.856;19.030;2023-04-01T07:04:34;3;2;2
33948;PMS7003;20229;49.856;19.030;2023-04-01T07:09:54;12;12;11
33948;PMS7003;20229;49.856;19.030;2023-04-01T07:15:20;10;10;9
33948;PMS7003;20229;49.856;19.030;2023-04-01T07:20:40;10;10;9
33948;PMS7003;20229;49.856;19.030;2023-04-01T07:25:55;12;9;8
33948;PMS7003;20229;49.856;19.030;2023-04-01T07:42:11;12;12;11
33948;PMS7003;20229;49.856;19.030;2023-04-01T07:58:28;157;156;154
33948;PMS7003;20229;49.856;19.030;2023-04-01T08:09:27;165;164;164
33948;PMS7003;20229;49.856;19.030;2023-04-01T08:25:42;91;88;84
33948;PMS7003;20229;49.856;19.030;2023-04-01T08:31:09;91;87;83
33948;PMS7003;20229;49.856;19.030;2023-04-01T09:04:14;181;180;179
33948;PMS7003;20229;49.856;19.030;2023-04-01T09:37:34;198;197;195
33948;PMS7003;20229;49.856;19.030;2023-04-01T10:04:48;77;71;67
33948;PMS7003;20229;49.856;19.030;2023-04-01T10:26:56;57;47;42
33948;PMS7003;20229;49.856;19.030;2023-04-01T11:10:25;39;33;27
33948;PMS7003;20229;49.856;19.030;2023-04-01T11:21:19;67;55;52
33948;PMS7003;20229;49.856;19.030;2023-04-01T11:37:37;63;52;49
33948;PMS7003;20229;49.856;19.030;2023-04-01T11:59:22;73;65;62
33948;PMS7003;20229;49.856;19.030;2023-04-01T12:04:42;78;77;75
33948;PMS7003;20229;49.856;19.030;2023-04-01T12:16:04;70;62;60
33948;PMS7003;20229;49.856;19.030;2023-04-01T12:21:32;83;81;79
33948;PMS7003;20229;49.856;19.030;2023-04-01T13:16:26;68;57;55
33948;PMS7003;20229;49.856;19.030;2023-04-01T13:43:58;70;61;58
33948;PMS7003;20229;49.856;19.030;2023-04-01T14:22:37;74;68;62
33948;PMS7003;20229;49.856;19.030;2023-04-01T14:49:36;72;68;64
33948;PMS7003;20229;49.856;19.030;2023-04-01T14:54:54;70;64;62
33948;PMS7003;20229;49.856;19.030;2023-04-01T15:00:14;71;66;63
33948;PMS7003;20229;49.856;19.030;2023-04-01T15:10:58;70;66;63
33948;PMS7003;20229;49.856;19.030;2023-04-01T15:32:48;71;65;62
33948;PMS7003;20229;49.856;19.030;2023-04-01T15:38:40;76;70;65
33948;PMS7003;20229;49.856;19.030;2023-04-01T15:44:03;70;64;60
33948;PMS7003;20229;49.856;19.030;2023-04-01T15:49:27;70;64;59
33948;PMS7003;20229;49.856;19.030;2023-04-01T15:54:57;71;64;60
33948;PMS7003;20229;49.856;19.030;2023-04-01T16:00:19;73;67;63
33948;PMS7003;20229;49.856;19.030;2023-04-01T16:22:01;70;64;57
33948;PMS7003;20229;49.856;19.030;2023-04-01T16:27:27;67;58;52
33948;PMS7003;20229;49.856;19.030;2023-04-01T16:32:51;67;58;50
33948;PMS7003;20229;49.856;19.030;2023-04-01T16:49:37;33;31;26
33948;PMS7003;20229;49.856;19.030;2023-04-01T16:55:03;58;51;46
33948;PMS7003;20229;49.856;19.030;2023-04-01T17:00:24;33;28;24
33948;PMS7003;20229;49.856;19.030;2023-04-01T17:05:43;21;18;14
33948;PMS7003;20229;49.856;19.030;2023-04-01T17:22:31;93;92;91
33948;PMS7003;20229;49.856;19.030;2023-04-01T17:33:22;70;70;68
33948;PMS7003;20229;49.856;19.030;2023-04-01T17:55:39;54;45;38
33948;PMS7003;20229;49.856;19.030;2023-04-01T18:01:05;41;35;27
33948;PMS7003;20229;49.856;19.030;2023-04-01T18:06:34;56;46;41
33948;PMS7003;20229;49.856;19.030;2023-04-01T18:28:15;53;45;40
33948;PMS7003;20229;49.856;19.030;2023-04-01T18:50:02;49;41;35
33948;PMS7003;20229;49.856;19.030;2023-04-01T19:06:51;56;44;38
33948;PMS7003;20229;49.856;19.030;2023-04-01T19:56:19;50;40;31
33948;PMS7003;20229;49.856;19.030;2023-04-01T20:07:13;54;43;34
33948;PMS7003;20229;49.856;19.030;2023-04-01T20:12:39;53;43;33
33948;PMS7003;20229;49.856;19.030;2023-04-01T20:18:23;50;40;29
33948;PMS7003;20229;49.856;19.030;2023-04-01T20:23:33;45;37;27
33948;PMS7003;20229;49.856;19.030;2023-04-01T20:34:30;19;11;3
33948;PMS7003;20229;49.856;19.030;2023-04-01T20:39:47;63;53;47
33948;PMS7003;20229;49.856;19.030;2023-04-01T20:50:46;65;56;48
33948;PMS7003;20229;49.856;19.030;2023-04-01T20:56:33;65;58;49
33948;PMS7003;20229;49.856;19.030;2023-04-01T21:02:00;64;55;47
33948;PMS7003;20229;49.856;19.030;2023-04-01T21:07:28;71;65;55
33948;PMS7003;20229;49.856;19.030;2023-04-01T21:12:52;65;59;50
33948;PMS7003;20229;49.856;19.030;2023-04-01T21:18:17;71;64;54
33948;PMS7003;20229;49.856;19.030;2023-04-01T21:45:56;93;87;73
33948;PMS7003;20229;49.856;19.030;2023-04-01T22:18:41;124;121;99
33948;PMS7003;20229;49.856;19.030;2023-04-01T22:24:22;118;114;92
33948;PMS7003;20229;49.856;19.030;2023-04-01T22:29:54;113;111;91
33948;PMS7003;20229;49.856;19.030;2023-04-01T22:51:39;114;109;91
33948;PMS7003;20229;49.856;19.030;2023-04-01T23:13:52;110;105;92
33948;PMS7003;20229;49.856;19.030;2023-04-01T23:24:38;126;121;96
33948;PMS7003;20229;49.856;19.030;2023-04-01T23:30:01;100;94;81
33948;PMS7003;20229;49.856;19.030;2023-04-01T23:35:16;112;106;82
33948;PMS7003;20229;49.856;19.030;2023-04-01T23:40:31;76;70;61
33948;PMS7003;20229;49.856;19.030;2023-04-01T23:45:45;68;62;52
33948;PMS7003;20229;49.856;19.030;2023-04-01T23:50:59;72;63;52
33948;PMS7003;20229;49.856;19.030;2023-04-01T23:56:16;77;68;57
